Time;durP1;ratioP1;P1;durP2;ratioP2;P2;SDS_P1;SDS_P2;PMS_P1;PMS_P2;Temp;Humidity;BMP_temperature;BMP_pressure;BME280_temperature;BME280_humidity;BME280_pressure;Samples;Min_cycle;Max_cycle;Signal;HPM_P1;HPM_P2
2021/07/14 00:00:38;;;;;;;13.30;10.85;;;;;;;20.10;98.69;100811.94;4981945;28;20029;-75
2021/07/14 00:03:10;;;;;;;15.80;9.52;;;;;;;20.12;98.76;100812.56;4972924;28;20038;-75
2021/07/14 00:05:38;;;;;;;14.63;10.18;;;;;;;20.07;99.27;100807.03;4989921;28;20380;-75
2021/07/14 00:08:06;;;;;;;14.57;10.80;;;;;;;20.03;98.94;100808.47;4989877;28;20045;-76
2021/07/14 00:10:32;;;;;;;17.42;11.15;;;;;;;20.05;99.41;100811.75;5005851;28;20026;-75
2021/07/14 00:23:38;;;;;;;15.00;11.00;;;;;;;19.75;100.00;100806.06;4994562;28;20080;-76
2021/07/14 00:26:08;;;;;;;22.67;12.55;;;;;;;19.76;100.00;100797.88;4998542;28;20037;-76
2021/07/14 00:28:35;;;;;;;18.98;11.23;;;;;;;19.69;100.00;100799.69;4988996;28;20030;-76
2021/07/14 00:31:12;;;;;;;19.50;11.60;;;;;;;19.65;100.00;100787.81;4992105;28;20365;-75
2021/07/14 00:33:46;;;;;;;13.38;11.43;;;;;;;19.62;100.00;100782.88;4991100;28;20294;-76
2021/07/14 00:36:16;;;;;;;19.33;12.10;;;;;;;19.55;100.00;100772.25;5009164;28;20033;-76
2021/07/14 00:38:42;;;;;;;20.33;12.80;;;;;;;19.49;100.00;100770.41;4977472;28;20037;-77
2021/07/14 00:41:08;;;;;;;24.80;13.18;;;;;;;19.53;100.00;100763.63;4984396;28;20571;-75
2021/07/14 00:43:36;;;;;;;19.80;12.90;;;;;;;19.51;100.00;100767.53;4994114;28;20122;-76
2021/07/14 00:46:20;;;;;;;19.50;12.57;;;;;;;19.46;100.00;100760.19;4993479;28;20030;-76
2021/07/14 00:48:48;;;;;;;15.77;12.60;;;;;;;19.45;100.00;100756.69;5008536;28;20052;-74
2021/07/14 00:51:14;;;;;;;15.75;11.88;;;;;;;19.40;100.00;100756.50;4977365;28;20034;-74
2021/07/14 00:53:40;;;;;;;15.63;11.93;;;;;;;19.40;100.00;100761.81;4996921;28;20037;-75
2021/07/14 00:56:12;;;;;;;17.00;13.73;;;;;;;19.44;100.00;100757.72;5005298;28;20080;-75
2021/07/14 00:58:44;;;;;;;13.95;12.00;;;;;;;19.51;100.00;100749.72;4973273;28;20136;-76
2021/07/14 01:01:10;;;;;;;17.02;12.30;;;;;;;19.44;100.00;100736.44;4970126;28;20117;-76
2021/07/14 01:03:48;;;;;;;15.02;11.38;;;;;;;19.43;100.00;100744.63;4989015;28;20074;-76
2021/07/14 01:06:24;;;;;;;17.73;12.68;;;;;;;19.51;100.00;100744.41;4985478;28;20574;-76
2021/07/14 01:09:06;;;;;;;16.85;12.82;;;;;;;19.53;100.00;100749.53;5003993;28;20041;-77
2021/07/14 01:11:33;;;;;;;22.27;13.00;;;;;;;19.54;100.00;100744.00;5003710;28;20080;-76
2021/07/14 01:14:25;;;;;;;21.63;12.13;;;;;;;19.60;100.00;100745.84;4987705;28;20057;-76
2021/07/14 01:17:02;;;;;;;15.73;12.10;;;;;;;19.56;100.00;100749.94;4973728;28;20029;-76
2021/07/14 01:20:03;;;;;;;19.95;12.20;;;;;;;19.59;100.00;100754.84;4992499;28;20507;-76
2021/07/14 01:22:52;;;;;;;18.83;12.73;;;;;;;19.60;100.00;100753.81;4941734;28;20045;-77
2021/07/14 01:25:40;;;;;;;21.02;12.35;;;;;;;19.59;100.00;100751.38;5002782;28;20030;-76
2021/07/14 01:28:05;;;;;;;13.32;11.65;;;;;;;19.56;100.00;100752.59;4973580;28;20148;-76
2021/07/14 01:30:31;;;;;;;18.02;12.63;;;;;;;19.52;100.00;100742.59;4968764;28;20499;-75
2021/07/14 01:33:01;;;;;;;15.90;11.98;;;;;;;19.52;100.00;100751.38;4987225;28;20482;-76
2021/07/14 01:35:31;;;;;;;12.43;10.95;;;;;;;19.49;100.00;100751.78;4975101;28;20528;-74
2021/07/14 01:37:57;;;;;;;20.88;10.80;;;;;;;19.45;100.00;100743.38;4974051;28;20481;-76
2021/07/14 01:40:23;;;;;;;21.38;12.75;;;;;;;19.57;100.00;100743.63;5007234;28;20034;-76
2021/07/14 01:42:56;;;;;;;17.55;11.23;;;;;;;19.72;100.00;100745.22;5008514;28;20036;-76
2021/07/14 01:45:27;;;;;;;15.18;12.05;;;;;;;19.77;100.00;100764.09;5011500;28;20030;-77
2021/07/14 01:47:54;;;;;;;14.48;11.90;;;;;;;19.83;100.00;100773.88;4990847;28;20061;-76
2021/07/14 01:50:21;;;;;;;14.43;12.18;;;;;;;19.82;100.00;100748.31;4966988;28;20034;-76
2021/07/14 01:52:48;;;;;;;12.57;11.27;;;;;;;19.72;100.00;100738.09;4987138;28;20216;-75
2021/07/14 01:55:13;;;;;;;16.52;12.73;;;;;;;19.71;100.00;100763.03;4984114;28;20044;-75
2021/07/14 01:57:40;;;;;;;16.55;12.95;;;;;;;19.80;100.00;100767.16;4985662;28;20106;-76
2021/07/14 02:00:09;;;;;;;14.18;12.68;;;;;;;19.82;100.00;100746.47;4978284;28;20041;-76
2021/07/14 02:02:48;;;;;;;16.48;11.32;;;;;;;19.70;100.00;100745.41;4990044;28;20098;-75
2021/07/14 02:05:15;;;;;;;13.15;11.32;;;;;;;19.68;100.00;100751.97;4959517;28;20038;-77
2021/07/14 02:07:40;;;;;;;18.48;13.05;;;;;;;19.70;100.00;100750.75;4984168;28;20048;-75
2021/07/14 02:10:07;;;;;;;16.30;11.63;;;;;;;19.61;100.00;100742.16;4967101;28;20065;-75
2021/07/14 02:12:34;;;;;;;17.75;12.15;;;;;;;19.57;100.00;100732.97;4986126;28;20565;-76
2021/07/14 02:15:06;;;;;;;18.15;11.82;;;;;;;19.54;100.00;100732.56;4989948;28;20068;-76
2021/07/14 02:17:52;;;;;;;19.48;11.95;;;;;;;19.61;100.00;100731.53;5005578;28;20094;-75
2021/07/14 02:20:19;;;;;;;19.70;11.73;;;;;;;19.54;100.00;100729.91;4968060;28;20038;-75
2021/07/14 02:22:50;;;;;;;18.52;11.55;;;;;;;19.45;100.00;100734.59;4981555;28;20092;-76
2021/07/14 02:25:16;;;;;;;25.00;11.70;;;;;;;19.45;100.00;100742.59;4987046;28;20034;-75
2021/07/14 02:27:43;;;;;;;18.83;11.35;;;;;;;19.40;100.00;100737.03;4993317;28;20439;-75
2021/07/14 02:30:21;;;;;;;19.45;12.40;;;;;;;19.43;100.00;100742.78;4993061;28;20802;-75
2021/07/14 02:32:53;;;;;;;17.73;12.05;;;;;;;19.40;100.00;100732.56;5004197;28;20674;-75
2021/07/14 02:35:19;;;;;;;17.30;12.75;;;;;;;19.39;100.00;100730.91;4987708;28;20038;-76
2021/07/14 02:37:52;;;;;;;19.90;12.80;;;;;;;19.38;100.00;100729.31;4988679;28;20077;-77
2021/07/14 02:40:35;;;;;;;23.65;12.68;;;;;;;19.45;100.00;100729.28;4966940;28;20758;-74
2021/07/14 02:43:04;;;;;;;14.18;12.07;;;;;;;19.45;100.00;100722.09;4989421;28;20030;-76
2021/07/14 02:45:32;;;;;;;20.13;12.82;;;;;;;19.48;100.00;100722.72;4990212;28;20054;-76
2021/07/14 02:48:00;;;;;;;19.25;13.00;;;;;;;19.42;100.00;100706.59;5000669;28;20040;-76
2021/07/14 02:50:30;;;;;;;20.33;14.23;;;;;;;19.41;100.00;100707.59;4989366;28;20048;-75
2021/07/14 02:53:00;;;;;;;22.17;13.30;;;;;;;19.43;100.00;100707.41;4973001;28;20038;-75
2021/07/14 02:55:30;;;;;;;18.13;13.13;;;;;;;19.41;100.00;100699.63;4974196;28;20104;-76
2021/07/14 02:57:58;;;;;;;21.63;12.93;;;;;;;19.44;100.00;100707.19;4990036;28;20048;-76
2021/07/14 03:00:26;;;;;;;14.40;12.88;;;;;;;19.38;100.00;100694.72;4989026;28;20073;-76
2021/07/14 03:02:53;;;;;;;20.83;12.52;;;;;;;19.44;100.00;100696.56;4984776;28;20124;-77
2021/07/14 03:05:20;;;;;;;20.42;14.52;;;;;;;19.38;100.00;100685.91;4989713;28;20399;-75
2021/07/14 03:07:47;;;;;;;20.75;15.55;;;;;;;19.34;100.00;100687.34;4986497;28;20033;-77
2021/07/14 03:10:21;;;;;;;18.30;14.93;;;;;;;19.38;100.00;100685.91;4972853;28;20042;-76
2021/07/14 03:12:48;;;;;;;29.65;14.18;;;;;;;19.39;100.00;100687.56;4972760;28;20503;-76
2021/07/14 03:15:14;;;;;;;21.02;12.77;;;;;;;19.33;100.00;100683.88;4988821;28;20033;-76
2021/07/14 03:17:42;;;;;;;15.35;12.98;;;;;;;19.39;100.00;100693.69;4989229;28;20048;-76
2021/07/14 03:20:13;;;;;;;17.23;13.73;;;;;;;19.40;100.00;100692.69;4988283;28;20044;-77
2021/07/14 03:22:44;;;;;;;19.45;13.32;;;;;;;19.39;100.00;100692.88;4969907;28;20030;-76
2021/07/14 03:25:11;;;;;;;18.58;13.48;;;;;;;19.37;100.00;100694.94;5000234;28;20030;-75
2021/07/14 03:27:39;;;;;;;16.55;13.82;;;;;;;19.41;100.00;100696.16;4981003;28;20666;-76
2021/07/14 03:30:06;;;;;;;16.30;12.82;;;;;;;19.43;100.00;100697.56;4982512;28;20045;-76
2021/07/14 03:32:32;;;;;;;16.33;12.50;;;;;;;19.45;100.00;100706.16;4969306;28;20033;-77
2021/07/14 03:34:57;;;;;;;18.55;12.73;;;;;;;19.52;100.00;100708.81;4987222;28;20116;-76
2021/07/14 03:37:24;;;;;;;17.27;13.65;;;;;;;19.59;100.00;100717.63;4982381;28;20038;-76
2021/07/14 03:39:50;;;;;;;18.88;13.43;;;;;;;19.53;100.00;100718.41;4984966;28;20033;-76
2021/07/14 03:42:17;;;;;;;18.60;13.63;;;;;;;19.60;100.00;100734.38;4987446;28;20029;-76
2021/07/14 03:44:45;;;;;;;18.40;13.65;;;;;;;19.57;100.00;100734.78;4981637;28;20113;-76
2021/07/14 03:47:14;;;;;;;16.17;13.43;;;;;;;19.63;100.00;100766.72;4981959;28;20105;-73
2021/07/14 03:49:40;;;;;;;16.40;13.38;;;;;;;19.63;100.00;100771.25;5002829;28;20033;-76
2021/07/14 03:52:07;;;;;;;14.27;12.40;;;;;;;19.63;100.00;100766.72;4973647;28;20037;-74
2021/07/14 03:54:34;;;;;;;18.45;13.45;;;;;;;19.57;100.00;100777.34;4971766;28;20041;-76
2021/07/14 03:57:01;;;;;;;16.08;13.43;;;;;;;19.57;100.00;100769.38;4990249;28;20793;-76
2021/07/14 03:59:27;;;;;;;19.67;15.10;;;;;;;19.52;100.00;100761.22;4989172;28;20034;-74
2021/07/14 04:01:54;;;;;;;16.67;12.60;;;;;;;19.51;100.00;100765.69;4994743;28;20037;-77
2021/07/14 04:04:20;;;;;;;21.52;14.05;;;;;;;19.48;100.00;100765.28;5010687;28;20479;-76
2021/07/14 04:06:51;;;;;;;19.65;13.68;;;;;;;19.47;100.00;100768.97;4982350;28;20101;-76
2021/07/14 04:09:16;;;;;;;21.05;14.18;;;;;;;19.46;100.00;100770.81;4981099;28;20836;-75
2021/07/14 04:11:43;;;;;;;16.67;13.48;;;;;;;19.53;100.00;100762.84;4964107;28;20125;-75
2021/07/14 04:14:08;;;;;;;15.02;13.10;;;;;;;19.52;100.00;100763.88;4980635;28;20038;-75
2021/07/14 04:16:34;;;;;;;14.70;13.07;;;;;;;19.49;100.00;100767.75;4995025;28;20399;-76
2021/07/14 04:19:01;;;;;;;15.65;13.40;;;;;;;19.43;100.00;100769.38;4984161;28;20046;-75
2021/07/14 04:21:27;;;;;;;20.83;15.65;;;;;;;19.38;100.00;100771.84;4985664;28;20120;-77
2021/07/14 04:23:55;;;;;;;19.33;14.57;;;;;;;19.41;100.00;100776.75;4987510;28;20046;-76
2021/07/14 04:26:21;;;;;;;18.45;14.73;;;;;;;19.50;100.00;100784.53;4967662;28;20038;-76
2021/07/14 04:28:47;;;;;;;16.20;14.15;;;;;;;19.52;100.00;100780.66;4989260;28;20116;-75
2021/07/14 04:31:13;;;;;;;20.40;15.65;;;;;;;19.50;100.00;100784.53;4990095;28;20093;-77
2021/07/14 04:33:41;;;;;;;18.52;14.82;;;;;;;19.49;100.00;100796.19;5004234;28;20133;-76
2021/07/14 04:36:07;;;;;;;18.52;14.25;;;;;;;19.51;100.00;100786.97;4969271;28;20470;-76
2021/07/14 04:38:33;;;;;;;22.90;16.70;;;;;;;19.54;100.00;100775.13;5014793;28;20113;-77
2021/07/14 04:40:58;;;;;;;22.33;14.73;;;;;;;19.61;100.00;100783.94;4977438;28;20039;-77
2021/07/14 04:43:24;;;;;;;20.17;14.90;;;;;;;19.62;100.00;100788.22;4993457;28;20415;-78
2021/07/14 04:46:05;;;;;;;19.98;15.93;;;;;;;19.56;100.00;100776.53;4980409;28;20030;-76
2021/07/14 04:48:31;;;;;;;18.85;15.73;;;;;;;19.62;100.00;100773.06;5009235;28;20088;-76
2021/07/14 04:50:56;;;;;;;20.00;15.40;;;;;;;19.63;100.00;100777.38;4996415;28;20490;-76
2021/07/14 04:53:22;;;;;;;22.67;16.77;;;;;;;19.69;100.00;100799.69;5021719;28;20044;-77
2021/07/14 04:55:47;;;;;;;22.63;17.20;;;;;;;19.72;100.00;100787.78;4989961;28;20042;-77
2021/07/14 04:58:13;;;;;;;20.33;15.85;;;;;;;19.77;100.00;100790.69;5003625;28;20116;-76
2021/07/14 05:00:39;;;;;;;21.08;15.48;;;;;;;19.70;100.00;100784.53;4972596;28;20125;-77
2021/07/14 05:03:04;;;;;;;21.40;15.88;;;;;;;19.76;100.00;100783.72;4971872;28;20034;-77
2021/07/14 05:05:30;;;;;;;22.67;15.90;;;;;;;19.76;100.00;100783.72;4973166;28;20141;-76
2021/07/14 05:07:56;;;;;;;22.38;17.02;;;;;;;19.72;100.00;100774.50;4983555;28;20038;-76
2021/07/14 05:10:24;;;;;;;19.88;16.13;;;;;;;19.76;100.00;100776.56;4999618;28;20290;-78
2021/07/14 05:12:51;;;;;;;18.15;15.38;;;;;;;19.84;100.00;100778.19;4970951;28;20042;-77
2021/07/14 05:15:17;;;;;;;23.95;16.83;;;;;;;19.83;100.00;100772.06;4976373;28;20476;-76
2021/07/14 05:17:43;;;;;;;22.40;17.20;;;;;;;19.88;100.00;100779.41;4976101;28;20060;-78
2021/07/14 05:20:09;;;;;;;22.58;16.20;;;;;;;19.91;100.00;100781.69;4992774;28;20029;-79
2021/07/14 05:22:36;;;;;;;23.77;17.83;;;;;;;19.94;100.00;100775.91;4973401;28;20026;-78
2021/07/14 05:25:03;;;;;;;19.92;16.67;;;;;;;19.97;100.00;100764.06;4984484;28;20030;-77
2021/07/14 05:27:28;;;;;;;19.08;16.33;;;;;;;19.94;100.00;100769.78;4981071;28;20060;-80
2021/07/14 05:29:54;;;;;;;24.25;17.80;;;;;;;19.88;100.00;100774.09;4977067;28;20487;-80
2021/07/14 05:32:20;;;;;;;20.08;16.65;;;;;;;19.87;100.00;100766.31;4975002;28;20041;-79
2021/07/14 05:34:45;;;;;;;22.33;16.10;;;;;;;19.90;100.00;100779.22;4990398;28;20998;-79
2021/07/14 05:37:11;;;;;;;19.38;15.55;;;;;;;19.88;100.00;100776.75;4989401;28;20030;-79
2021/07/14 05:39:37;;;;;;;23.88;17.88;;;;;;;19.87;100.00;100771.63;5009617;28;20149;-78
2021/07/14 05:42:08;;;;;;;20.48;16.85;;;;;;;19.90;100.00;100777.38;4975486;28;20091;-80
2021/07/14 05:44:34;;;;;;;24.23;17.38;;;;;;;19.92;100.00;100777.16;4991952;28;20030;-80
2021/07/14 05:46:59;;;;;;;23.73;18.10;;;;;;;19.93;100.00;100786.78;4989937;28;20880;-80
2021/07/14 05:49:25;;;;;;;23.27;17.10;;;;;;;19.99;100.00;100777.97;4990517;28;20038;-80
2021/07/14 05:51:50;;;;;;;26.02;18.63;;;;;;;20.04;100.00;100778.16;4991005;28;20034;-82
2021/07/14 05:54:16;;;;;;;22.85;16.67;;;;;;;20.06;100.00;100780.59;4975906;28;20061;-81
2021/07/14 05:56:42;;;;;;;27.15;17.95;;;;;;;20.01;100.00;100771.41;4977719;28;20034;-81
2021/07/14 05:59:08;;;;;;;18.65;15.45;;;;;;;20.08;100.00;100774.06;5030067;28;20032;-81
2021/07/14 06:01:33;;;;;;;21.88;16.75;;;;;;;20.12;100.00;100766.47;4993466;28;20118;-80
2021/07/14 06:04:00;;;;;;;24.92;17.92;;;;;;;20.15;100.00;100755.41;5001891;28;20041;-80
2021/07/14 06:06:26;;;;;;;19.63;15.70;;;;;;;20.21;100.00;100762.53;4974196;28;20046;-81
2021/07/14 06:08:52;;;;;;;21.77;15.38;;;;;;;20.20;100.00;100756.41;4988827;28;20037;-82
2021/07/14 06:11:18;;;;;;;19.67;15.98;;;;;;;20.22;100.00;100764.19;4971412;28;20030;-83
2021/07/14 06:13:44;;;;;;;17.73;15.82;;;;;;;20.20;100.00;100766.25;4992526;28;20267;-81
2021/07/14 06:16:10;;;;;;;21.25;16.48;;;;;;;20.13;100.00;100760.13;4969109;28;20534;-83
2021/07/14 06:18:36;;;;;;;19.20;17.02;;;;;;;20.09;100.00;100766.88;4982054;28;20048;-81
2021/07/14 06:21:03;;;;;;;18.83;16.45;;;;;;;20.07;100.00;100755.63;4976143;28;20033;-81
2021/07/14 06:23:28;;;;;;;19.80;17.00;;;;;;;20.00;100.00;100772.44;4991545;28;20041;-81
2021/07/14 06:25:55;;;;;;;20.27;16.25;;;;;;;20.03;100.00;100803.97;4975526;28;20029;-80
2021/07/14 06:28:21;;;;;;;28.48;18.42;;;;;;;19.91;100.00;100764.88;4972283;28;20025;-79
2021/07/14 06:30:47;;;;;;;25.25;18.15;;;;;;;19.87;100.00;100742.34;4979299;28;20644;-78
2021/07/14 06:33:13;;;;;;;31.05;20.00;;;;;;;19.82;100.00;100741.16;4981871;28;20030;-78
2021/07/14 06:35:39;;;;;;;27.38;20.25;;;;;;;19.78;100.00;100729.28;4988334;28;20100;-78
2021/07/14 06:38:05;;;;;;;30.48;21.20;;;;;;;19.80;100.00;100726.41;4989548;28;20492;-77
2021/07/14 06:40:33;;;;;;;29.90;22.42;;;;;;;19.86;100.00;100719.44;4999681;28;20033;-79
2021/07/14 06:43:00;;;;;;;29.63;21.98;;;;;;;19.91;100.00;100701.81;4992905;28;20092;-78
2021/07/14 06:45:27;;;;;;;27.45;23.08;;;;;;;19.88;100.00;100704.09;4977236;28;20253;-79
2021/07/14 06:47:54;;;;;;;34.50;23.88;;;;;;;19.88;100.00;100696.09;4986485;28;20180;-78
2021/07/14 06:50:20;;;;;;;31.45;22.73;;;;;;;19.86;100.00;100698.97;4984589;28;20048;-80
2021/07/14 06:52:46;;;;;;;34.45;25.13;;;;;;;19.85;100.00;100692.00;4993392;28;20091;-78
2021/07/14 06:55:12;;;;;;;32.05;23.35;;;;;;;19.81;100.00;100680.13;4994167;28;20214;-79
2021/07/14 06:57:39;;;;;;;35.38;25.70;;;;;;;19.83;100.00;100678.91;5010698;28;20037;-79
2021/07/14 07:00:07;;;;;;;33.28;25.67;;;;;;;19.91;100.00;100682.34;4973372;28;20038;-79
2021/07/14 07:02:33;;;;;;;33.67;25.30;;;;;;;19.91;100.00;100677.88;4991476;28;20525;-79
2021/07/14 07:04:59;;;;;;;33.65;25.55;;;;;;;19.98;100.00;100688.47;4985789;28;20497;-80
2021/07/14 07:07:25;;;;;;;30.77;24.98;;;;;;;20.07;100.00;100689.88;5003975;28;20046;-81
2021/07/14 07:09:52;;;;;;;32.22;25.00;;;;;;;20.14;100.00;100689.88;4981021;28;20478;-80
2021/07/14 07:12:19;;;;;;;29.38;24.73;;;;;;;20.22;100.00;100684.28;4976105;28;20038;-81
2021/07/14 07:14:45;;;;;;;33.67;24.15;;;;;;;20.16;100.00;100677.16;4992585;28;20037;-81
2021/07/14 07:17:10;;;;;;;30.65;24.20;;;;;;;20.13;100.00;100673.06;5005984;28;20089;-79
2021/07/14 07:19:36;;;;;;;31.02;25.52;;;;;;;20.10;100.00;100673.50;4984139;28;20525;-81
2021/07/14 07:22:03;;;;;;;34.10;25.42;;;;;;;20.13;100.00;100672.25;5008469;28;20044;-81
2021/07/14 07:24:28;;;;;;;33.70;27.15;;;;;;;20.18;100.00;100670.59;4978344;28;20026;-80
2021/07/14 07:26:54;;;;;;;30.85;25.23;;;;;;;20.16;100.00;100671.84;4992476;28;20033;-80
2021/07/14 07:29:20;;;;;;;36.75;25.20;;;;;;;20.21;100.00;100674.66;4997283;28;20091;-81
2021/07/14 07:31:45;;;;;;;30.02;24.45;;;;;;;20.17;100.00;100679.63;4991859;28;20064;-80
2021/07/14 07:34:11;;;;;;;34.90;26.67;;;;;;;20.23;100.00;100676.09;4999242;28;20042;-81
2021/07/14 07:36:37;;;;;;;34.50;25.90;;;;;;;20.18;100.00;100680.44;4975496;28;20029;-80
2021/07/14 07:39:06;;;;;;;32.90;23.75;;;;;;;20.22;100.00;100682.44;4991964;28;20483;-82
2021/07/14 07:41:32;;;;;;;33.13;24.60;;;;;;;20.31;100.00;100683.03;4975560;28;20092;-81
2021/07/14 07:43:58;;;;;;;28.23;22.90;;;;;;;20.53;100.00;100691.53;4992289;28;20062;-83
2021/07/14 07:46:23;;;;;;;30.60;22.90;;;;;;;20.64;100.00;100697.22;4999814;28;20490;-82
2021/07/14 07:48:49;;;;;;;27.85;22.63;;;;;;;20.73;100.00;100701.28;5011163;28;20073;-82
2021/07/14 07:51:15;;;;;;;28.70;22.88;;;;;;;20.92;100.00;100702.97;4974367;28;20030;-83
2021/07/14 07:53:40;;;;;;;29.73;24.35;;;;;;;21.06;100.00;100701.06;4992501;28;20041;-82
2021/07/14 07:56:06;;;;;;;31.15;25.25;;;;;;;21.36;100.00;100703.03;4977277;28;20038;-83
2021/07/14 07:58:33;;;;;;;26.20;23.00;;;;;;;21.43;100.00;100700.34;4982833;28;20030;-82
2021/07/14 08:00:59;;;;;;;30.33;21.85;;;;;;;21.67;100.00;100701.38;5006886;28;20034;-83
2021/07/14 08:03:25;;;;;;;30.05;21.98;;;;;;;21.84;100.00;100690.94;4993533;28;20104;-82
2021/07/14 08:05:51;;;;;;;26.23;20.33;;;;;;;21.92;98.75;100694.09;4979035;28;20021;-82
2021/07/14 08:08:16;;;;;;;29.63;21.55;;;;;;;22.02;98.97;100688.25;4999679;28;20123;-80
2021/07/14 08:10:42;;;;;;;24.15;21.30;;;;;;;22.10;99.36;100692.47;4976316;28;20037;-77
2021/07/14 08:13:08;;;;;;;30.02;19.83;;;;;;;22.26;98.94;100688.41;4982243;28;20148;-80
2021/07/14 08:15:35;;;;;;;25.63;18.92;;;;;;;22.33;97.69;100686.47;4991982;28;20137;-81
2021/07/14 08:18:01;;;;;;;24.65;18.67;;;;;;;22.23;94.93;100696.84;5014957;28;20042;-79
2021/07/14 08:20:27;;;;;;;21.48;18.75;;;;;;;22.23;94.55;100703.00;4996270;28;20108;-81
2021/07/14 08:22:54;;;;;;;21.85;18.65;;;;;;;22.27;95.16;100706.06;5007751;28;20038;-78
2021/07/14 08:25:20;;;;;;;21.13;17.23;;;;;;;22.23;94.90;100699.53;4989315;28;20117;-82
2021/07/14 08:27:46;;;;;;;23.95;19.27;;;;;;;22.19;95.51;100709.00;4994297;28;20144;-79
2021/07/14 08:30:13;;;;;;;22.67;18.35;;;;;;;22.27;96.14;100708.75;4993165;28;20038;-79
2021/07/14 08:32:39;;;;;;;24.98;17.42;;;;;;;22.38;95.79;100707.97;5011666;28;20034;-80
2021/07/14 08:35:07;;;;;;;24.70;17.88;;;;;;;22.76;95.73;100712.19;4990318;28;20377;-81
2021/07/14 08:37:33;;;;;;;22.92;17.00;;;;;;;22.85;93.76;100718.84;4992374;28;20041;-80
2021/07/14 08:39:59;;;;;;;23.80;19.20;;;;;;;23.26;94.96;100719.03;4969876;28;20391;-78
2021/07/14 08:42:25;;;;;;;20.75;16.23;;;;;;;23.63;91.12;100721.50;4993685;28;20045;-79
2021/07/14 08:44:53;;;;;;;24.38;15.60;;;;;;;24.01;89.27;100730.91;4960736;28;20518;-78
2021/07/14 08:47:20;;;;;;;16.80;14.30;;;;;;;23.86;86.95;100720.69;4983324;28;20441;-78
2021/07/14 08:49:48;;;;;;;23.67;15.50;;;;;;;23.57;88.37;100727.81;4991228;28;20084;-79
2021/07/14 08:52:15;;;;;;;16.15;14.48;;;;;;;23.77;86.65;100720.22;4980520;28;20132;-78
2021/07/14 08:54:42;;;;;;;17.65;14.48;;;;;;;24.08;87.38;100719.03;4990047;28;20044;-79
2021/07/14 08:57:15;;;;;;;20.25;13.60;;;;;;;24.25;84.24;100719.09;4963717;28;20503;-79
2021/07/14 08:59:41;;;;;;;18.23;15.70;;;;;;;24.09;83.46;100727.88;4994405;28;20125;-80
2021/07/14 09:02:11;;;;;;;17.35;13.25;;;;;;;24.28;85.66;100726.66;4989494;28;20113;-78
2021/07/14 09:04:36;;;;;;;19.75;15.15;;;;;;;24.18;87.86;100722.97;5004001;28;20427;-78
2021/07/14 09:07:03;;;;;;;17.58;14.93;;;;;;;24.08;89.42;100719.03;4976152;28;20037;-78
2021/07/14 09:09:30;;;;;;;16.17;14.35;;;;;;;23.79;90.60;100712.81;4977161;28;20029;-79
2021/07/14 09:11:58;;;;;;;15.98;13.27;;;;;;;23.90;90.35;100720.00;4973029;28;20038;-77
2021/07/14 09:14:36;;;;;;;14.80;13.07;;;;;;;23.87;89.99;100727.69;5004911;28;20048;-78
2021/07/14 09:17:19;;;;;;;16.02;12.32;;;;;;;23.94;87.14;100728.38;4971542;28;20045;-78
2021/07/14 09:19:45;;;;;;;17.55;13.73;;;;;;;23.83;89.40;100731.91;4993472;28;20040;-78
2021/07/14 09:22:24;;;;;;;15.73;12.20;;;;;;;23.67;93.20;100733.38;4993553;28;20030;-77
2021/07/14 09:24:55;;;;;;;15.32;13.27;;;;;;;23.58;90.91;100722.19;4975627;28;20038;-77
2021/07/14 09:27:27;;;;;;;24.30;13.65;;;;;;;23.67;94.63;100723.47;4976972;28;20117;-77
2021/07/14 09:30:10;;;;;;;15.63;12.30;;;;;;;23.73;92.68;100720.91;4996645;28;20099;-78
2021/07/14 09:32:56;;;;;;;19.05;14.23;;;;;;;23.85;92.32;100722.56;4971102;28;20029;-77
2021/07/14 09:35:46;;;;;;;16.17;12.65;;;;;;;24.02;94.53;100716.50;4988725;28;20053;-76
2021/07/14 09:38:14;;;;;;;14.55;12.75;;;;;;;23.98;95.75;100715.31;4976490;28;20100;-76
2021/07/14 09:40:42;;;;;;;15.50;12.93;;;;;;;24.02;96.43;100709.25;4990298;28;20034;-77
2021/07/14 09:43:14;;;;;;;16.15;13.05;;;;;;;23.97;90.85;100717.19;4994529;28;20136;-76
2021/07/14 09:45:54;;;;;;;17.58;13.85;;;;;;;23.81;88.87;100704.50;4988133;28;20038;-77
2021/07/14 09:48:26;;;;;;;17.13;14.10;;;;;;;23.59;90.92;100706.97;4991747;28;20036;-78
2021/07/14 09:51:09;;;;;;;13.40;12.18;;;;;;;23.38;92.82;100711.06;4973797;28;20042;-77
2021/07/14 09:53:37;;;;;;;16.88;15.02;;;;;;;23.16;97.31;100705.44;4988939;28;20109;-77
2021/07/14 09:56:11;;;;;;;17.77;14.80;;;;;;;23.26;98.07;100703.84;4972743;28;20030;-77
2021/07/14 09:58:37;;;;;;;16.35;13.88;;;;;;;23.29;97.25;100708.69;4976407;28;20037;-78
2021/07/14 10:01:05;;;;;;;16.67;13.85;;;;;;;23.58;94.16;100710.69;4973257;28;20095;-78
2021/07/14 10:03:36;;;;;;;16.05;14.00;;;;;;;23.86;92.47;100707.31;4994822;28;20081;-77
2021/07/14 10:06:11;;;;;;;15.05;13.48;;;;;;;24.09;90.47;100706.44;4969775;28;20083;-78
2021/07/14 10:08:42;;;;;;;17.83;13.18;;;;;;;24.14;89.87;100708.41;4973974;28;20894;-77
2021/07/14 10:11:13;;;;;;;12.95;11.60;;;;;;;24.09;85.09;100712.63;5022810;28;20038;-78
2021/07/14 10:14:00;;;;;;;13.52;11.70;;;;;;;24.20;86.41;100713.63;4970643;28;20038;-76
2021/07/14 10:16:29;;;;;;;13.65;11.23;;;;;;;24.25;83.70;100713.72;4967592;28;20038;-76
2021/07/14 10:19:02;;;;;;;15.63;12.25;;;;;;;24.18;88.53;100714.94;4993140;28;20041;-77
2021/07/14 10:21:29;;;;;;;16.40;11.15;;;;;;;24.21;84.77;100709.91;4988438;28;20038;-78
2021/07/14 10:23:56;;;;;;;15.05;11.35;;;;;;;24.20;88.27;100718.19;4978125;28;20495;-77
2021/07/14 10:26:22;;;;;;;14.25;11.95;;;;;;;24.09;87.27;100728.69;4995879;28;20029;-77
2021/07/14 10:28:51;;;;;;;14.27;11.32;;;;;;;24.11;85.55;100720.44;4979530;28;20100;-77
2021/07/14 10:31:22;;;;;;;16.88;11.82;;;;;;;24.33;87.38;100722.44;5004561;28;20075;-76
2021/07/14 10:33:49;;;;;;;12.77;11.30;;;;;;;24.42;84.14;100721.03;5014038;28;20045;-78
2021/07/14 10:36:19;;;;;;;13.27;10.27;;;;;;;24.84;83.50;100704.63;4995715;28;20041;-78
2021/07/14 10:38:49;;;;;;;17.58;11.10;;;;;;;25.44;84.44;100704.00;5003988;28;20053;-79
2021/07/14 10:41:15;;;;;;;13.95;10.10;;;;;;;25.92;78.35;100698.22;4988140;28;20594;-77
2021/07/14 10:43:44;;;;;;;15.70;9.43;;;;;;;26.45;74.47;100699.38;4989521;28;20034;-75
2021/07/14 10:46:11;;;;;;;10.05;9.05;;;;;;;26.61;71.41;100703.03;5009858;28;20033;-78
2021/07/14 10:48:41;;;;;;;12.63;9.18;;;;;;;27.06;70.89;100699.13;4983004;28;20044;-77
2021/07/14 10:51:09;;;;;;;10.70;9.60;;;;;;;26.85;74.96;100695.47;4990874;28;20048;-78
2021/07/14 10:53:36;;;;;;;15.68;8.98;;;;;;;26.78;73.54;100697.53;5007160;28;20061;-77
2021/07/14 10:56:02;;;;;;;13.65;9.90;;;;;;;26.71;73.66;100697.78;4970739;28;20125;-77
2021/07/14 10:58:29;;;;;;;14.75;9.75;;;;;;;26.37;73.18;100691.75;4970864;28;20042;-77
2021/07/14 11:00:57;;;;;;;11.55;9.38;;;;;;;26.11;74.07;100696.84;5001980;28;20030;-78
2021/07/14 11:03:32;;;;;;;11.40;9.80;;;;;;;25.97;76.39;100706.34;4990851;28;20089;-77
2021/07/14 11:05:59;;;;;;;12.23;9.50;;;;;;;25.97;74.64;100696.41;5005954;28;20104;-77
2021/07/14 11:08:49;;;;;;;11.25;9.32;;;;;;;25.88;75.57;100705.97;4973834;28;20546;-77
2021/07/14 11:11:19;;;;;;;10.80;9.57;;;;;;;26.04;75.41;100701.59;4973507;28;20553;-76
2021/07/14 11:13:48;;;;;;;16.10;9.93;;;;;;;26.07;75.32;100694.91;4990368;28;20034;-77
2021/07/14 11:16:35;;;;;;;11.18;9.80;;;;;;;25.82;76.70;100701.56;4989321;28;20030;-77
2021/07/14 11:19:13;;;;;;;11.45;10.35;;;;;;;25.48;77.26;100690.09;5005382;28;20038;-76
2021/07/14 11:21:44;;;;;;;13.35;9.70;;;;;;;26.41;73.16;100687.50;5005723;28;20104;-75